Stockton, New Jersey
Current Conditions -  °F | °C
As of 3:54 AM on Saturday 20 Dec 2014 (Local Time) from KDYL Reporting Station
Overcast Overcast  
Wind Chill: 23°   Ceiling: 2200
Heat Index: 30°   Visibility: 10mi
Dew Point: 22°   Wind: 7mph
Humidity: 72%   Direction: 350°N
Pressure: 30.21"   Gusts: NA
Location:  40.41°N, 74.98°W
Report Text: KDYL 200854Z AUTO 35006KT 10SM OVC022 M01/M06 A3021 RMK AO2 SLP237 T10111056 52012
Loading
Personal Weather Stations






























Interactive Weather Map New forecast layout! Learn more

10-Day Weather Forecast

Advertisements
Track Severe Weather on mobile